sensor_id;sensor_type;location;lat;lon;timestamp;temperature;humidity
9907;DHT22;4992;51.628;6.664;2023-10-31T00:01:21;12.50;99.90
9907;DHT22;4992;51.628;6.664;2023-10-31T00:03:47;12.30;99.90
9907;DHT22;4992;51.628;6.664;2023-10-31T00:06:12;12.10;99.90
9907;DHT22;4992;51.628;6.664;2023-10-31T00:08:38;11.90;99.90
9907;DHT22;4992;51.628;6.664;2023-10-31T00:11:03;11.70;99.90
9907;DHT22;4992;51.628;6.664;2023-10-31T00:13:29;11.50;99.90
9907;DHT22;4992;51.628;6.664;2023-10-31T00:15:54;11.40;99.90
9907;DHT22;4992;51.628;6.664;2023-10-31T00:18:20;11.30;99.90
9907;DHT22;4992;51.628;6.664;2023-10-31T00:20:46;11.20;99.90
9907;DHT22;4992;51.628;6.664;2023-10-31T00:23:12;11.20;99.90
9907;DHT22;4992;51.628;6.664;2023-10-31T00:25:38;11.10;99.90
9907;DHT22;4992;51.628;6.664;2023-10-31T00:28:03;11.00;99.90
9907;DHT22;4992;51.628;6.664;2023-10-31T00:30:29;11.00;99.90
9907;DHT22;4992;51.628;6.664;2023-10-31T00:32:54;10.90;99.90
9907;DHT22;4992;51.628;6.664;2023-10-31T00:35:20;10.90;99.90
9907;DHT22;4992;51.628;6.664;2023-10-31T00:37:45;10.80;99.90
9907;DHT22;4992;51.628;6.664;2023-10-31T00:40:11;10.80;99.90
9907;DHT22;4992;51.628;6.664;2023-10-31T00:42:40;10.80;99.90
9907;DHT22;4992;51.628;6.664;2023-10-31T00:45:08;10.80;99.90
9907;DHT22;4992;51.628;6.664;2023-10-31T00:47:34;10.70;99.90
9907;DHT22;4992;51.628;6.664;2023-10-31T00:49:59;10.70;99.90
9907;DHT22;4992;51.628;6.664;2023-10-31T00:52:25;10.70;99.90
9907;DHT22;4992;51.628;6.664;2023-10-31T00:54:50;10.70;99.90
9907;DHT22;4992;51.628;6.664;2023-10-31T00:57:16;10.70;99.90
9907;DHT22;4992;51.628;6.664;2023-10-31T00:59:42;10.60;99.90
9907;DHT22;4992;51.628;6.664;2023-10-31T01:02:08;10.60;99.90
9907;DHT22;4992;51.628;6.664;2023-10-31T01:04:33;10.60;99.90
9907;DHT22;4992;51.628;6.664;2023-10-31T01:07:00;10.60;99.90
9907;DHT22;4992;51.628;6.664;2023-10-31T01:09:26;10.60;99.90
9907;DHT22;4992;51.628;6.664;2023-10-31T01:11:51;10.50;99.90
9907;DHT22;4992;51.628;6.664;2023-10-31T01:14:17;10.50;99.90
9907;DHT22;4992;51.628;6.664;2023-10-31T01:16:43;10.50;99.90
9907;DHT22;4992;51.628;6.664;2023-10-31T01:19:08;10.50;99.90
9907;DHT22;4992;51.628;6.664;2023-10-31T01:21:34;10.50;99.90
9907;DHT22;4992;51.628;6.664;2023-10-31T01:23:59;10.40;99.90
9907;DHT22;4992;51.628;6.664;2023-10-31T01:26:25;10.40;99.90
9907;DHT22;4992;51.628;6.664;2023-10-31T01:28:52;10.40;99.90
9907;DHT22;4992;51.628;6.664;2023-10-31T01:31:17;10.40;99.90
9907;DHT22;4992;51.628;6.664;2023-10-31T01:33:43;10.30;99.90
9907;DHT22;4992;51.628;6.664;2023-10-31T01:36:09;10.40;99.90
9907;DHT22;4992;51.628;6.664;2023-10-31T01:38:36;10.40;99.90
9907;DHT22;4992;51.628;6.664;2023-10-31T01:41:01;10.30;99.90
9907;DHT22;4992;51.628;6.664;2023-10-31T01:45:59;10.30;99.90
9907;DHT22;4992;51.628;6.664;2023-10-31T01:48:27;10.40;99.90
9907;DHT22;4992;51.628;6.664;2023-10-31T01:50:54;10.30;99.90
9907;DHT22;4992;51.628;6.664;2023-10-31T01:53:20;10.30;99.90
9907;DHT22;4992;51.628;6.664;2023-10-31T01:55:46;10.40;99.90
9907;DHT22;4992;51.628;6.664;2023-10-31T01:58:12;10.30;99.90
9907;DHT22;4992;51.628;6.664;2023-10-31T02:00:40;10.30;99.90
9907;DHT22;4992;51.628;6.664;2023-10-31T02:03:08;10.30;99.90
9907;DHT22;4992;51.628;6.664;2023-10-31T02:05:35;10.30;99.90
9907;DHT22;4992;51.628;6.664;2023-10-31T02:08:01;10.30;99.90
9907;DHT22;4992;51.628;6.664;2023-10-31T02:10:27;10.30;99.90
9907;DHT22;4992;51.628;6.664;2023-10-31T02:12:52;10.30;99.90
9907;DHT22;4992;51.628;6.664;2023-10-31T02:15:18;10.30;99.90
9907;DHT22;4992;51.628;6.664;2023-10-31T02:17:43;10.30;99.90
9907;DHT22;4992;51.628;6.664;2023-10-31T02:20:09;10.30;99.90
9907;DHT22;4992;51.628;6.664;2023-10-31T02:22:35;10.30;99.90
9907;DHT22;4992;51.628;6.664;2023-10-31T02:25:00;10.30;99.90
9907;DHT22;4992;51.628;6.664;2023-10-31T02:27:26;10.40;99.90
9907;DHT22;4992;51.628;6.664;2023-10-31T02:29:51;10.40;99.90
9907;DHT22;4992;51.628;6.664;2023-10-31T02:32:17;10.40;99.90
9907;DHT22;4992;51.628;6.664;2023-10-31T02:34:45;10.40;99.90
9907;DHT22;4992;51.628;6.664;2023-10-31T02:37:10;10.40;99.90
9907;DHT22;4992;51.628;6.664;2023-10-31T02:39:37;10.40;99.90
9907;DHT22;4992;51.628;6.664;2023-10-31T02:42:03;10.40;99.90
9907;DHT22;4992;51.628;6.664;2023-10-31T02:44:28;10.40;99.90
9907;DHT22;4992;51.628;6.664;2023-10-31T02:46:54;10.40;99.90
9907;DHT22;4992;51.628;6.664;2023-10-31T02:49:19;10.30;99.90
9907;DHT22;4992;51.628;6.664;2023-10-31T02:51:45;10.30;99.90
9907;DHT22;4992;51.628;6.664;2023-10-31T02:54:11;10.30;99.90
9907;DHT22;4992;51.628;6.664;2023-10-31T02:56:36;10.30;99.90
9907;DHT22;4992;51.628;6.664;2023-10-31T02:59:02;10.20;99.90
9907;DHT22;4992;51.628;6.664;2023-10-31T03:01:29;10.20;99.90
9907;DHT22;4992;51.628;6.664;2023-10-31T03:03:54;10.20;99.90
9907;DHT22;4992;51.628;6.664;2023-10-31T03:06:21;10.20;99.90
9907;DHT22;4992;51.628;6.664;2023-10-31T03:08:47;10.20;99.90
9907;DHT22;4992;51.628;6.664;2023-10-31T03:11:23;10.20;99.90
9907;DHT22;4992;51.628;6.664;2023-10-31T03:13:50;10.20;99.90
9907;DHT22;4992;51.628;6.664;2023-10-31T03:16:15;10.20;99.90
9907;DHT22;4992;51.628;6.664;2023-10-31T03:18:41;10.30;99.90
9907;DHT22;4992;51.628;6.664;2023-10-31T03:21:07;10.30;99.90
9907;DHT22;4992;51.628;6.664;2023-10-31T03:23:33;10.30;99.90
9907;DHT22;4992;51.628;6.664;2023-10-31T03:25:59;10.30;99.90
9907;DHT22;4992;51.628;6.664;2023-10-31T03:28:24;10.30;99.90
9907;DHT22;4992;51.628;6.664;2023-10-31T03:30:50;10.30;99.90
9907;DHT22;4992;51.628;6.664;2023-10-31T03:33:16;10.30;99.90
9907;DHT22;4992;51.628;6.664;2023-10-31T03:35:43;10.30;99.90
9907;DHT22;4992;51.628;6.664;2023-10-31T03:38:09;10.40;99.90
9907;DHT22;4992;51.628;6.664;2023-10-31T03:40:34;10.40;99.90
9907;DHT22;4992;51.628;6.664;2023-10-31T03:43:00;10.40;99.90
9907;DHT22;4992;51.628;6.664;2023-10-31T03:45:25;10.40;99.90
9907;DHT22;4992;51.628;6.664;2023-10-31T03:47:51;10.40;99.90
9907;DHT22;4992;51.628;6.664;2023-10-31T03:50:16;10.40;99.90
9907;DHT22;4992;51.628;6.664;2023-10-31T03:52:42;10.40;99.90
9907;DHT22;4992;51.628;6.664;2023-10-31T03:55:08;10.40;99.90
9907;DHT22;4992;51.628;6.664;2023-10-31T03:57:33;10.40;99.90
9907;DHT22;4992;51.628;6.664;2023-10-31T03:59:59;10.40;99.90
9907;DHT22;4992;51.628;6.664;2023-10-31T04:02:25;10.50;99.90
9907;DHT22;4992;51.628;6.664;2023-10-31T04:04:50;10.50;99.90
9907;DHT22;4992;51.628;6.664;2023-10-31T04:07:16;10.50;99.90
9907;DHT22;4992;51.628;6.664;2023-10-31T04:09:42;10.50;99.90
9907;DHT22;4992;51.628;6.664;2023-10-31T04:12:08;10.50;99.90
9907;DHT22;4992;51.628;6.664;2023-10-31T04:14:34;10.40;99.90
9907;DHT22;4992;51.628;6.664;2023-10-31T04:17:00;10.50;99.90
9907;DHT22;4992;51.628;6.664;2023-10-31T04:19:25;10.50;99.90
9907;DHT22;4992;51.628;6.664;2023-10-31T04:21:52;10.50;99.90
9907;DHT22;4992;51.628;6.664;2023-10-31T04:24:18;10.50;99.90
9907;DHT22;4992;51.628;6.664;2023-10-31T04:26:43;10.50;99.90
9907;DHT22;4992;51.628;6.664;2023-10-31T04:29:09;10.50;99.90
9907;DHT22;4992;51.628;6.664;2023-10-31T04:31:35;10.50;99.90
9907;DHT22;4992;51.628;6.664;2023-10-31T04:34:00;10.50;99.90
9907;DHT22;4992;51.628;6.664;2023-10-31T04:36:26;10.50;99.90
9907;DHT22;4992;51.628;6.664;2023-10-31T04:38:51;10.50;99.90
9907;DHT22;4992;51.628;6.664;2023-10-31T04:41:17;10.60;99.90
9907;DHT22;4992;51.628;6.664;2023-10-31T04:43:43;10.50;99.90
9907;DHT22;4992;51.628;6.664;2023-10-31T04:46:08;10.50;99.90
9907;DHT22;4992;51.628;6.664;2023-10-31T04:48:34;10.50;99.90
9907;DHT22;4992;51.628;6.664;2023-10-31T04:50:59;10.50;99.90
9907;DHT22;4992;51.628;6.664;2023-10-31T04:53:25;10.50;99.90
9907;DHT22;4992;51.628;6.664;2023-10-31T04:55:51;10.50;99.90
9907;DHT22;4992;51.628;6.664;2023-10-31T04:58:16;10.50;99.90
9907;DHT22;4992;51.628;6.664;2023-10-31T05:00:42;10.50;99.90
9907;DHT22;4992;51.628;6.664;2023-10-31T05:03:07;10.50;99.90
9907;DHT22;4992;51.628;6.664;2023-10-31T05:05:33;10.50;99.90
9907;DHT22;4992;51.628;6.664;2023-10-31T05:07:58;10.50;99.90
9907;DHT22;4992;51.628;6.664;2023-10-31T05:10:24;10.50;99.90
9907;DHT22;4992;51.628;6.664;2023-10-31T05:12:50;10.50;99.90
9907;DHT22;4992;51.628;6.664;2023-10-31T05:15:16;10.50;99.90
9907;DHT22;4992;51.628;6.664;2023-10-31T05:17:41;10.50;99.90
9907;DHT22;4992;51.628;6.664;2023-10-31T05:20:08;10.50;99.90
9907;DHT22;4992;51.628;6.664;2023-10-31T05:22:35;10.50;99.90
9907;DHT22;4992;51.628;6.664;2023-10-31T05:25:00;10.50;99.90
9907;DHT22;4992;51.628;6.664;2023-10-31T05:27:26;10.50;99.90
9907;DHT22;4992;51.628;6.664;2023-10-31T05:29:51;10.50;99.90
9907;DHT22;4992;51.628;6.664;2023-10-31T05:32:17;10.50;99.90
9907;DHT22;4992;51.628;6.664;2023-10-31T05:34:42;10.50;99.90
9907;DHT22;4992;51.628;6.664;2023-10-31T05:37:08;10.50;99.90
9907;DHT22;4992;51.628;6.664;2023-10-31T05:39:33;10.50;99.90
9907;DHT22;4992;51.628;6.664;2023-10-31T05:42:02;10.50;99.90
9907;DHT22;4992;51.628;6.664;2023-10-31T05:44:27;10.40;99.90
9907;DHT22;4992;51.628;6.664;2023-10-31T05:46:53;10.50;99.90
9907;DHT22;4992;51.628;6.664;2023-10-31T05:49:19;10.50;99.90
9907;DHT22;4992;51.628;6.664;2023-10-31T05:51:49;10.50;99.90
9907;DHT22;4992;51.628;6.664;2023-10-31T05:54:14;10.50;99.90
9907;DHT22;4992;51.628;6.664;2023-10-31T05:56:40;10.50;99.90
9907;DHT22;4992;51.628;6.664;2023-10-31T05:59:06;10.50;99.90
9907;DHT22;4992;51.628;6.664;2023-10-31T06:01:32;10.50;99.90
9907;DHT22;4992;51.628;6.664;2023-10-31T06:03:57;10.50;99.90
9907;DHT22;4992;51.628;6.664;2023-10-31T06:06:23;10.40;99.90
9907;DHT22;4992;51.628;6.664;2023-10-31T06:08:48;10.40;99.90
9907;DHT22;4992;51.628;6.664;2023-10-31T06:11:14;10.40;99.90
9907;DHT22;4992;51.628;6.664;2023-10-31T06:13:41;10.40;99.90
9907;DHT22;4992;51.628;6.664;2023-10-31T06:16:07;10.40;99.90
9907;DHT22;4992;51.628;6.664;2023-10-31T06:18:33;10.40;99.90
9907;DHT22;4992;51.628;6.664;2023-10-31T06:20:58;10.40;99.90
9907;DHT22;4992;51.628;6.664;2023-10-31T06:23:24;10.40;99.90
9907;DHT22;4992;51.628;6.664;2023-10-31T06:25:49;10.40;99.90
9907;DHT22;4992;51.628;6.664;2023-10-31T06:28:15;10.40;99.90
9907;DHT22;4992;51.628;6.664;2023-10-31T06:30:41;10.40;99.90
9907;DHT22;4992;51.628;6.664;2023-10-31T06:33:06;10.40;99.90
9907;DHT22;4992;51.628;6.664;2023-10-31T06:35:36;10.50;99.90
9907;DHT22;4992;51.628;6.664;2023-10-31T06:38:02;10.50;99.90
9907;DHT22;4992;51.628;6.664;2023-10-31T06:40:27;10.50;99.90
9907;DHT22;4992;51.628;6.664;2023-10-31T06:42:53;10.50;99.90
9907;DHT22;4992;51.628;6.664;2023-10-31T06:45:19;10.50;99.90
9907;DHT22;4992;51.628;6.664;2023-10-31T06:47:44;10.50;99.90
9907;DHT22;4992;51.628;6.664;2023-10-31T06:50:10;10.50;99.90
9907;DHT22;4992;51.628;6.664;2023-10-31T06:52:36;10.50;99.90
9907;DHT22;4992;51.628;6.664;2023-10-31T06:55:01;10.50;99.90
9907;DHT22;4992;51.628;6.664;2023-10-31T06:57:27;10.50;99.90
9907;DHT22;4992;51.628;6.664;2023-10-31T06:59:52;10.50;99.90
9907;DHT22;4992;51.628;6.664;2023-10-31T07:02:18;10.50;99.90
9907;DHT22;4992;51.628;6.664;2023-10-31T07:04:44;10.50;99.90
9907;DHT22;4992;51.628;6.664;2023-10-31T07:07:09;10.60;99.90
9907;DHT22;4992;51.628;6.664;2023-10-31T07:09:35;10.60;99.90
9907;DHT22;4992;51.628;6.664;2023-10-31T07:12:01;10.60;99.90
9907;DHT22;4992;51.628;6.664;2023-10-31T07:14:26;10.60;99.90
9907;DHT22;4992;51.628;6.664;2023-10-31T07:16:52;10.60;99.90
9907;DHT22;4992;51.628;6.664;2023-10-31T07:19:17;10.60;99.90
9907;DHT22;4992;51.628;6.664;2023-10-31T07:21:43;10.60;99.90
9907;DHT22;4992;51.628;6.664;2023-10-31T07:24:08;10.60;99.90
9907;DHT22;4992;51.628;6.664;2023-10-31T07:26:36;10.60;99.90
9907;DHT22;4992;51.628;6.664;2023-10-31T07:29:02;10.50;99.90
9907;DHT22;4992;51.628;6.664;2023-10-31T07:31:28;10.50;99.90
9907;DHT22;4992;51.628;6.664;2023-10-31T07:33:54;10.50;99.90
9907;DHT22;4992;51.628;6.664;2023-10-31T07:36:19;10.50;99.90
9907;DHT22;4992;51.628;6.664;2023-10-31T07:38:45;10.50;99.90
9907;DHT22;4992;51.628;6.664;2023-10-31T07:41:10;10.50;99.90
9907;DHT22;4992;51.628;6.664;2023-10-31T07:43:36;10.50;99.90
9907;DHT22;4992;51.628;6.664;2023-10-31T07:46:01;10.50;99.90
9907;DHT22;4992;51.628;6.664;2023-10-31T07:48:27;10.50;99.90
9907;DHT22;4992;51.628;6.664;2023-10-31T07:50:53;10.50;99.90
9907;DHT22;4992;51.628;6.664;2023-10-31T07:53:18;10.50;99.90
9907;DHT22;4992;51.628;6.664;2023-10-31T07:55:44;10.50;99.90
9907;DHT22;4992;51.628;6.664;2023-10-31T07:58:09;10.50;99.90
9907;DHT22;4992;51.628;6.664;2023-10-31T08:00:35;10.50;99.90
9907;DHT22;4992;51.628;6.664;2023-10-31T08:03:01;10.60;99.90
9907;DHT22;4992;51.628;6.664;2023-10-31T08:05:27;10.60;99.90
9907;DHT22;4992;51.628;6.664;2023-10-31T08:07:53;10.60;99.90
9907;DHT22;4992;51.628;6.664;2023-10-31T08:10:18;10.70;99.90
9907;DHT22;4992;51.628;6.664;2023-10-31T08:12:44;10.70;99.90
9907;DHT22;4992;51.628;6.664;2023-10-31T08:15:10;10.80;99.90
9907;DHT22;4992;51.628;6.664;2023-10-31T08:17:35;10.80;99.90
9907;DHT22;4992;51.628;6.664;2023-10-31T08:20:02;10.80;99.90
9907;DHT22;4992;51.628;6.664;2023-10-31T08:22:29;10.90;99.90
9907;DHT22;4992;51.628;6.664;2023-10-31T08:24:54;10.90;99.90
9907;DHT22;4992;51.628;6.664;2023-10-31T08:27:20;11.00;99.90
9907;DHT22;4992;51.628;6.664;2023-10-31T08:29:45;11.00;99.90
9907;DHT22;4992;51.628;6.664;2023-10-31T08:32:11;11.00;99.90
9907;DHT22;4992;51.628;6.664;2023-10-31T08:34:36;11.00;99.90
9907;DHT22;4992;51.628;6.664;2023-10-31T08:37:03;11.00;99.90
9907;DHT22;4992;51.628;6.664;2023-10-31T08:39:28;11.10;99.90
9907;DHT22;4992;51.628;6.664;2023-10-31T08:41:55;11.10;99.90
9907;DHT22;4992;51.628;6.664;2023-10-31T08:44:22;11.10;99.90
9907;DHT22;4992;51.628;6.664;2023-10-31T08:46:47;11.20;99.90
9907;DHT22;4992;51.628;6.664;2023-10-31T08:49:14;11.20;99.90
9907;DHT22;4992;51.628;6.664;2023-10-31T08:51:41;11.20;99.90
9907;DHT22;4992;51.628;6.664;2023-10-31T08:54:06;11.20;99.90
9907;DHT22;4992;51.628;6.664;2023-10-31T08:56:32;11.30;99.90
9907;DHT22;4992;51.628;6.664;2023-10-31T08:58:57;11.30;99.90
9907;DHT22;4992;51.628;6.664;2023-10-31T09:01:23;11.30;99.90
9907;DHT22;4992;51.628;6.664;2023-10-31T09:03:48;11.30;99.90
9907;DHT22;4992;51.628;6.664;2023-10-31T09:06:14;11.30;99.90
9907;DHT22;4992;51.628;6.664;2023-10-31T09:08:40;11.30;99.90
9907;DHT22;4992;51.628;6.664;2023-10-31T09:11:06;11.30;99.90
9907;DHT22;4992;51.628;6.664;2023-10-31T09:13:32;11.30;99.90
9907;DHT22;4992;51.628;6.664;2023-10-31T09:15:58;11.30;99.90
9907;DHT22;4992;51.628;6.664;2023-10-31T09:18:24;11.20;99.90
9907;DHT22;4992;51.628;6.664;2023-10-31T09:20:50;11.30;99.90
9907;DHT22;4992;51.628;6.664;2023-10-31T09:23:16;11.30;99.90
9907;DHT22;4992;51.628;6.664;2023-10-31T09:25:43;11.40;99.90
9907;DHT22;4992;51.628;6.664;2023-10-31T09:28:08;11.40;99.90
9907;DHT22;4992;51.628;6.664;2023-10-31T09:30:34;11.50;99.90
9907;DHT22;4992;51.628;6.664;2023-10-31T09:32:59;11.60;99.90
9907;DHT22;4992;51.628;6.664;2023-10-31T09:35:25;11.70;99.90
9907;DHT22;4992;51.628;6.664;2023-10-31T09:37:52;11.80;99.90
9907;DHT22;4992;51.628;6.664;2023-10-31T09:40:17;11.90;99.90
9907;DHT22;4992;51.628;6.664;2023-10-31T09:42:44;11.90;99.90
9907;DHT22;4992;51.628;6.664;2023-10-31T09:45:11;11.90;99.90
9907;DHT22;4992;51.628;6.664;2023-10-31T09:47:37;12.00;99.90
9907;DHT22;4992;51.628;6.664;2023-10-31T09:50:03;12.10;99.90
9907;DHT22;4992;51.628;6.664;2023-10-31T09:52:29;12.10;99.90
9907;DHT22;4992;51.628;6.664;2023-10-31T09:54:55;12.20;99.90
9907;DHT22;4992;51.628;6.664;2023-10-31T09:57:21;12.20;99.90
9907;DHT22;4992;51.628;6.664;2023-10-31T09:59:47;12.30;99.90
9907;DHT22;4992;51.628;6.664;2023-10-31T10:02:12;12.30;99.90
9907;DHT22;4992;51.628;6.664;2023-10-31T10:04:38;12.30;99.90
9907;DHT22;4992;51.628;6.664;2023-10-31T10:07:04;12.30;99.90
9907;DHT22;4992;51.628;6.664;2023-10-31T10:09:30;12.30;99.90
9907;DHT22;4992;51.628;6.664;2023-10-31T10:11:59;12.40;99.90
9907;DHT22;4992;51.628;6.664;2023-10-31T10:14:26;12.30;99.90
9907;DHT22;4992;51.628;6.664;2023-10-31T10:16:56;12.30;99.90
9907;DHT22;4992;51.628;6.664;2023-10-31T10:19:23;12.30;99.90
9907;DHT22;4992;51.628;6.664;2023-10-31T10:21:53;12.40;99.90
9907;DHT22;4992;51.628;6.664;2023-10-31T10:24:21;12.40;99.90
9907;DHT22;4992;51.628;6.664;2023-10-31T10:26:47;12.50;99.90
9907;DHT22;4992;51.628;6.664;2023-10-31T10:29:14;12.50;99.90
9907;DHT22;4992;51.628;6.664;2023-10-31T10:31:40;12.50;99.90
9907;DHT22;4992;51.628;6.664;2023-10-31T10:34:06;12.50;99.90
9907;DHT22;4992;51.628;6.664;2023-10-31T10:36:33;12.60;99.90
9907;DHT22;4992;51.628;6.664;2023-10-31T10:38:59;12.50;99.90
9907;DHT22;4992;51.628;6.664;2023-10-31T10:41:26;12.50;99.90
9907;DHT22;4992;51.628;6.664;2023-10-31T10:44:04;12.40;99.90
9907;DHT22;4992;51.628;6.664;2023-10-31T10:46:34;12.40;99.90
9907;DHT22;4992;51.628;6.664;2023-10-31T10:49:00;12.30;99.90
9907;DHT22;4992;51.628;6.664;2023-10-31T10:51:29;12.20;99.90
9907;DHT22;4992;51.628;6.664;2023-10-31T10:54:08;12.30;99.90
9907;DHT22;4992;51.628;6.664;2023-10-31T10:56:43;12.20;99.90
9907;DHT22;4992;51.628;6.664;2023-10-31T10:59:16;12.20;99.90
9907;DHT22;4992;51.628;6.664;2023-10-31T11:01:46;12.10;99.90
9907;DHT22;4992;51.628;6.664;2023-10-31T11:04:13;12.10;99.90
9907;DHT22;4992;51.628;6.664;2023-10-31T11:06:39;12.10;99.90
9907;DHT22;4992;51.628;6.664;2023-10-31T11:09:05;12.10;99.90
9907;DHT22;4992;51.628;6.664;2023-10-31T11:11:32;12.00;99.90
9907;DHT22;4992;51.628;6.664;2023-10-31T11:13:58;12.10;99.90
9907;DHT22;4992;51.628;6.664;2023-10-31T11:16:30;12.10;99.90
9907;DHT22;4992;51.628;6.664;2023-10-31T11:18:57;12.20;99.90
9907;DHT22;4992;51.628;6.664;2023-10-31T11:21:23;12.20;99.90
9907;DHT22;4992;51.628;6.664;2023-10-31T11:23:59;12.30;99.90
9907;DHT22;4992;51.628;6.664;2023-10-31T11:26:30;12.30;99.90
9907;DHT22;4992;51.628;6.664;2023-10-31T11:29:05;12.30;99.90
9907;DHT22;4992;51.628;6.664;2023-10-31T11:31:32;12.40;99.90
9907;DHT22;4992;51.628;6.664;2023-10-31T11:34:01;12.40;99.90
9907;DHT22;4992;51.628;6.664;2023-10-31T11:36:26;12.30;99.90
9907;DHT22;4992;51.628;6.664;2023-10-31T11:39:14;12.30;99.90
9907;DHT22;4992;51.628;6.664;2023-10-31T11:41:40;12.30;99.90
9907;DHT22;4992;51.628;6.664;2023-10-31T11:44:10;12.20;99.90
9907;DHT22;4992;51.628;6.664;2023-10-31T11:46:36;12.30;99.90
9907;DHT22;4992;51.628;6.664;2023-10-31T11:49:01;12.30;99.90
9907;DHT22;4992;51.628;6.664;2023-10-31T11:51:29;12.30;99.90
9907;DHT22;4992;51.628;6.664;2023-10-31T11:53:56;12.40;99.90
9907;DHT22;4992;51.628;6.664;2023-10-31T11:56:22;12.50;99.90
9907;DHT22;4992;51.628;6.664;2023-10-31T11:59:03;12.60;99.90
9907;DHT22;4992;51.628;6.664;2023-10-31T12:01:29;12.80;99.90
9907;DHT22;4992;51.628;6.664;2023-10-31T12:03:55;12.90;99.90
9907;DHT22;4992;51.628;6.664;2023-10-31T12:06:20;13.00;99.90
9907;DHT22;4992;51.628;6.664;2023-10-31T12:08:47;13.00;99.90
9907;DHT22;4992;51.628;6.664;2023-10-31T12:11:18;13.00;99.90
9907;DHT22;4992;51.628;6.664;2023-10-31T12:13:55;13.00;99.90
9907;DHT22;4992;51.628;6.664;2023-10-31T12:16:29;13.20;99.90
9907;DHT22;4992;51.628;6.664;2023-10-31T12:19:03;13.30;99.90
9907;DHT22;4992;51.628;6.664;2023-10-31T12:21:39;13.50;99.90
9907;DHT22;4992;51.628;6.664;2023-10-31T12:24:07;13.50;99.90
9907;DHT22;4992;51.628;6.664;2023-10-31T12:26:34;13.50;99.90
9907;DHT22;4992;51.628;6.664;2023-10-31T12:29:14;13.60;99.90
9907;DHT22;4992;51.628;6.664;2023-10-31T12:34:11;13.50;99.90
9907;DHT22;4992;51.628;6.664;2023-10-31T12:36:37;13.50;99.90
9907;DHT22;4992;51.628;6.664;2023-10-31T12:39:05;13.50;99.90
9907;DHT22;4992;51.628;6.664;2023-10-31T12:41:32;13.60;99.90
9907;DHT22;4992;51.628;6.664;2023-10-31T12:43:58;13.60;99.90
9907;DHT22;4992;51.628;6.664;2023-10-31T12:46:28;13.70;99.90
9907;DHT22;4992;51.628;6.664;2023-10-31T12:48:57;13.90;99.90
9907;DHT22;4992;51.628;6.664;2023-10-31T12:51:23;14.00;99.90
9907;DHT22;4992;51.628;6.664;2023-10-31T12:53:49;14.00;99.90
9907;DHT22;4992;51.628;6.664;2023-10-31T12:56:34;14.00;99.90
9907;DHT22;4992;51.628;6.664;2023-10-31T12:59:00;14.00;99.90
9907;DHT22;4992;51.628;6.664;2023-10-31T13:01:25;14.10;99.90
9907;DHT22;4992;51.628;6.664;2023-10-31T13:03:51;13.90;99.90
9907;DHT22;4992;51.628;6.664;2023-10-31T13:06:17;13.90;99.90
9907;DHT22;4992;51.628;6.664;2023-10-31T13:08:45;13.90;99.90
9907;DHT22;4992;51.628;6.664;2023-10-31T13:11:13;13.80;99.90
9907;DHT22;4992;51.628;6.664;2023-10-31T13:13:38;13.90;99.90
9907;DHT22;4992;51.628;6.664;2023-10-31T13:16:04;14.30;99.90
9907;DHT22;4992;51.628;6.664;2023-10-31T13:18:30;14.80;99.90
9907;DHT22;4992;51.628;6.664;2023-10-31T13:20:56;15.70;99.90
9907;DHT22;4992;51.628;6.664;2023-10-31T13:23:21;16.10;99.90
9907;DHT22;4992;51.628;6.664;2023-10-31T13:25:47;16.20;99.90
9907;DHT22;4992;51.628;6.664;2023-10-31T13:28:12;15.90;99.90
9907;DHT22;4992;51.628;6.664;2023-10-31T13:30:39;15.60;99.90
9907;DHT22;4992;51.628;6.664;2023-10-31T13:33:06;15.50;99.90
9907;DHT22;4992;51.628;6.664;2023-10-31T13:35:32;15.50;99.90
9907;DHT22;4992;51.628;6.664;2023-10-31T13:37:59;15.20;99.90
9907;DHT22;4992;51.628;6.664;2023-10-31T13:40:26;15.00;99.90
9907;DHT22;4992;51.628;6.664;2023-10-31T13:42:51;14.80;99.90
9907;DHT22;4992;51.628;6.664;2023-10-31T13:45:17;14.80;99.90
9907;DHT22;4992;51.628;6.664;2023-10-31T13:47:42;14.60;99.90
9907;DHT22;4992;51.628;6.664;2023-10-31T13:50:08;14.60;99.90
9907;DHT22;4992;51.628;6.664;2023-10-31T13:52:34;14.60;99.90
9907;DHT22;4992;51.628;6.664;2023-10-31T13:54:59;14.60;99.90
9907;DHT22;4992;51.628;6.664;2023-10-31T13:57:25;15.00;99.90
9907;DHT22;4992;51.628;6.664;2023-10-31T13:59:50;15.80;99.90
9907;DHT22;4992;51.628;6.664;2023-10-31T14:02:16;16.10;99.90
9907;DHT22;4992;51.628;6.664;2023-10-31T14:04:42;16.00;99.90
9907;DHT22;4992;51.628;6.664;2023-10-31T14:07:08;16.30;99.90
9907;DHT22;4992;51.628;6.664;2023-10-31T14:09:33;17.10;99.90
9907;DHT22;4992;51.628;6.664;2023-10-31T14:11:59;17.80;99.90
9907;DHT22;4992;51.628;6.664;2023-10-31T14:14:25;18.10;99.90
9907;DHT22;4992;51.628;6.664;2023-10-31T14:16:50;18.40;99.90
9907;DHT22;4992;51.628;6.664;2023-10-31T14:19:16;18.60;99.90
9907;DHT22;4992;51.628;6.664;2023-10-31T14:21:42;18.40;99.90
9907;DHT22;4992;51.628;6.664;2023-10-31T14:24:08;18.30;99.90
9907;DHT22;4992;51.628;6.664;2023-10-31T14:26:34;18.30;99.90
9907;DHT22;4992;51.628;6.664;2023-10-31T14:29:00;18.60;99.90
9907;DHT22;4992;51.628;6.664;2023-10-31T14:31:26;18.60;99.90
9907;DHT22;4992;51.628;6.664;2023-10-31T14:33:51;18.30;99.90
9907;DHT22;4992;51.628;6.664;2023-10-31T14:36:17;17.80;99.90
9907;DHT22;4992;51.628;6.664;2023-10-31T14:38:43;17.30;99.90
9907;DHT22;4992;51.628;6.664;2023-10-31T14:41:09;16.60;99.90
9907;DHT22;4992;51.628;6.664;2023-10-31T14:43:35;15.90;99.90
9907;DHT22;4992;51.628;6.664;2023-10-31T14:46:01;15.50;99.90
9907;DHT22;4992;51.628;6.664;2023-10-31T14:48:27;15.10;99.90
9907;DHT22;4992;51.628;6.664;2023-10-31T14:50:54;14.90;99.90
9907;DHT22;4992;51.628;6.664;2023-10-31T14:53:19;14.60;99.90
9907;DHT22;4992;51.628;6.664;2023-10-31T14:55:45;14.30;99.90
9907;DHT22;4992;51.628;6.664;2023-10-31T14:58:11;14.10;99.90
9907;DHT22;4992;51.628;6.664;2023-10-31T15:00:37;13.90;99.90
9907;DHT22;4992;51.628;6.664;2023-10-31T15:03:03;13.70;99.90
9907;DHT22;4992;51.628;6.664;2023-10-31T15:05:29;13.40;99.90
9907;DHT22;4992;51.628;6.664;2023-10-31T15:07:55;13.30;99.90
9907;DHT22;4992;51.628;6.664;2023-10-31T15:10:23;13.10;99.90
9907;DHT22;4992;51.628;6.664;2023-10-31T15:12:49;13.00;99.90
9907;DHT22;4992;51.628;6.664;2023-10-31T15:15:15;13.00;99.90
9907;DHT22;4992;51.628;6.664;2023-10-31T15:17:41;12.90;99.90
9907;DHT22;4992;51.628;6.664;2023-10-31T15:20:07;12.80;99.90
9907;DHT22;4992;51.628;6.664;2023-10-31T15:22:35;12.80;99.90
9907;DHT22;4992;51.628;6.664;2023-10-31T15:25:01;12.70;99.90
9907;DHT22;4992;51.628;6.664;2023-10-31T15:27:27;12.70;99.90
9907;DHT22;4992;51.628;6.664;2023-10-31T15:29:52;12.60;99.90
9907;DHT22;4992;51.628;6.664;2023-10-31T15:32:18;12.60;99.90
9907;DHT22;4992;51.628;6.664;2023-10-31T15:34:43;12.60;99.90
9907;DHT22;4992;51.628;6.664;2023-10-31T15:37:09;12.50;99.90
9907;DHT22;4992;51.628;6.664;2023-10-31T15:39:37;12.50;99.90
9907;DHT22;4992;51.628;6.664;2023-10-31T15:42:03;12.50;99.90
9907;DHT22;4992;51.628;6.664;2023-10-31T15:44:28;12.40;99.90
9907;DHT22;4992;51.628;6.664;2023-10-31T15:46:54;12.40;99.90
9907;DHT22;4992;51.628;6.664;2023-10-31T15:49:19;12.40;99.90
9907;DHT22;4992;51.628;6.664;2023-10-31T15:51:45;12.30;99.90
9907;DHT22;4992;51.628;6.664;2023-10-31T15:54:10;12.30;99.90
9907;DHT22;4992;51.628;6.664;2023-10-31T15:56:36;12.30;99.90
9907;DHT22;4992;51.628;6.664;2023-10-31T15:59:01;12.20;99.90
9907;DHT22;4992;51.628;6.664;2023-10-31T16:01:27;12.20;99.90